sensor_id;sensor_type;location;lat;lon;timestamp;P1;durP1;ratioP1;P2;durP2;ratioP2
46447;SDS011;32145;50.390;30.778;2023-05-10T00:00:23;5.95;;;3.30;;
46447;SDS011;32145;50.390;30.778;2023-05-10T00:03:19;7.75;;;3.33;;
46447;SDS011;32145;50.390;30.778;2023-05-10T00:06:15;7.65;;;3.20;;
46447;SDS011;32145;50.390;30.778;2023-05-10T00:09:11;7.55;;;3.22;;
46447;SDS011;32145;50.390;30.778;2023-05-10T00:12:08;6.65;;;2.97;;
46447;SDS011;32145;50.390;30.778;2023-05-10T00:15:05;7.03;;;2.95;;
46447;SDS011;32145;50.390;30.778;2023-05-10T00:18:03;6.20;;;3.10;;
46447;SDS011;32145;50.390;30.778;2023-05-10T00:20:58;5.22;;;2.80;;
46447;SDS011;32145;50.390;30.778;2023-05-10T00:23:52;8.25;;;3.00;;
46447;SDS011;32145;50.390;30.778;2023-05-10T00:26:48;6.35;;;2.85;;
46447;SDS011;32145;50.390;30.778;2023-05-10T00:29:44;5.50;;;3.10;;
46447;SDS011;32145;50.390;30.778;2023-05-10T00:32:41;4.75;;;2.60;;
46447;SDS011;32145;50.390;30.778;2023-05-10T00:35:39;5.40;;;2.50;;
46447;SDS011;32145;50.390;30.778;2023-05-10T00:38:35;6.30;;;2.55;;
46447;SDS011;32145;50.390;30.778;2023-05-10T00:41:31;6.43;;;3.30;;
46447;SDS011;32145;50.390;30.778;2023-05-10T00:44:25;5.38;;;2.40;;
46447;SDS011;32145;50.390;30.778;2023-05-10T00:47:20;5.32;;;2.75;;
46447;SDS011;32145;50.390;30.778;2023-05-10T00:50:14;6.10;;;2.80;;
46447;SDS011;32145;50.390;30.778;2023-05-10T00:53:10;8.52;;;2.92;;
46447;SDS011;32145;50.390;30.778;2023-05-10T00:56:04;5.55;;;2.63;;
46447;SDS011;32145;50.390;30.778;2023-05-10T00:58:58;6.45;;;2.80;;
46447;SDS011;32145;50.390;30.778;2023-05-10T01:01:53;4.45;;;2.65;;
46447;SDS011;32145;50.390;30.778;2023-05-10T01:04:47;6.38;;;2.97;;
46447;SDS011;32145;50.390;30.778;2023-05-10T01:07:42;4.82;;;2.75;;
46447;SDS011;32145;50.390;30.778;2023-05-10T01:10:38;6.75;;;3.03;;
46447;SDS011;32145;50.390;30.778;2023-05-10T01:13:33;4.38;;;2.65;;
46447;SDS011;32145;50.390;30.778;2023-05-10T01:16:31;5.38;;;2.70;;
46447;SDS011;32145;50.390;30.778;2023-05-10T01:19:29;6.95;;;2.80;;
46447;SDS011;32145;50.390;30.778;2023-05-10T01:22:36;5.25;;;3.00;;
46447;SDS011;32145;50.390;30.778;2023-05-10T01:25:50;7.50;;;2.93;;
46447;SDS011;32145;50.390;30.778;2023-05-10T01:29:11;5.30;;;2.80;;
46447;SDS011;32145;50.390;30.778;2023-05-10T01:32:17;6.30;;;2.90;;
46447;SDS011;32145;50.390;30.778;2023-05-10T01:35:22;7.40;;;3.28;;
46447;SDS011;32145;50.390;30.778;2023-05-10T01:38:27;5.57;;;2.92;;
46447;SDS011;32145;50.390;30.778;2023-05-10T01:41:30;7.75;;;3.40;;
46447;SDS011;32145;50.390;30.778;2023-05-10T01:44:34;9.38;;;2.97;;
46447;SDS011;32145;50.390;30.778;2023-05-10T01:47:37;7.45;;;2.88;;
46447;SDS011;32145;50.390;30.778;2023-05-10T01:50:35;6.72;;;2.97;;
46447;SDS011;32145;50.390;30.778;2023-05-10T01:53:30;6.13;;;2.75;;
46447;SDS011;32145;50.390;30.778;2023-05-10T01:56:27;5.57;;;2.70;;
46447;SDS011;32145;50.390;30.778;2023-05-10T01:59:25;4.75;;;2.70;;
46447;SDS011;32145;50.390;30.778;2023-05-10T02:02:24;5.65;;;2.53;;
46447;SDS011;32145;50.390;30.778;2023-05-10T02:05:20;4.80;;;2.60;;
46447;SDS011;32145;50.390;30.778;2023-05-10T02:08:16;7.30;;;2.80;;
46447;SDS011;32145;50.390;30.778;2023-05-10T02:11:12;5.55;;;2.67;;
46447;SDS011;32145;50.390;30.778;2023-05-10T02:14:07;5.72;;;2.78;;
46447;SDS011;32145;50.390;30.778;2023-05-10T02:17:05;5.28;;;2.70;;
46447;SDS011;32145;50.390;30.778;2023-05-10T02:20:01;5.45;;;2.90;;
46447;SDS011;32145;50.390;30.778;2023-05-10T02:22:57;9.80;;;2.85;;
46447;SDS011;32145;50.390;30.778;2023-05-10T02:25:52;5.55;;;2.72;;
46447;SDS011;32145;50.390;30.778;2023-05-10T02:28:52;4.60;;;2.70;;
46447;SDS011;32145;50.390;30.778;2023-05-10T02:31:51;4.35;;;2.90;;
46447;SDS011;32145;50.390;30.778;2023-05-10T02:34:49;6.38;;;3.10;;
46447;SDS011;32145;50.390;30.778;2023-05-10T02:37:47;5.10;;;2.90;;
46447;SDS011;32145;50.390;30.778;2023-05-10T02:40:46;5.60;;;2.65;;
46447;SDS011;32145;50.390;30.778;2023-05-10T02:43:41;5.93;;;2.50;;
46447;SDS011;32145;50.390;30.778;2023-05-10T02:46:37;6.03;;;2.92;;
46447;SDS011;32145;50.390;30.778;2023-05-10T02:49:31;5.90;;;2.70;;
46447;SDS011;32145;50.390;30.778;2023-05-10T02:52:26;6.80;;;2.90;;
46447;SDS011;32145;50.390;30.778;2023-05-10T02:55:25;5.28;;;2.67;;
46447;SDS011;32145;50.390;30.778;2023-05-10T02:58:24;4.95;;;2.63;;
46447;SDS011;32145;50.390;30.778;2023-05-10T03:01:20;7.53;;;2.90;;
46447;SDS011;32145;50.390;30.778;2023-05-10T03:04:17;8.18;;;2.83;;
46447;SDS011;32145;50.390;30.778;2023-05-10T03:07:13;5.72;;;2.78;;
46447;SDS011;32145;50.390;30.778;2023-05-10T03:10:09;4.57;;;2.60;;
46447;SDS011;32145;50.390;30.778;2023-05-10T03:13:07;6.85;;;3.10;;
46447;SDS011;32145;50.390;30.778;2023-05-10T03:16:27;4.93;;;2.80;;
46447;SDS011;32145;50.390;30.778;2023-05-10T03:19:30;6.63;;;2.85;;
46447;SDS011;32145;50.390;30.778;2023-05-10T03:22:34;6.95;;;3.00;;
46447;SDS011;32145;50.390;30.778;2023-05-10T03:25:33;6.15;;;2.80;;
46447;SDS011;32145;50.390;30.778;2023-05-10T03:28:30;5.65;;;2.95;;
46447;SDS011;32145;50.390;30.778;2023-05-10T03:31:30;4.13;;;2.67;;
46447;SDS011;32145;50.390;30.778;2023-05-10T03:34:26;5.90;;;2.60;;
46447;SDS011;32145;50.390;30.778;2023-05-10T03:37:25;5.80;;;2.60;;
46447;SDS011;32145;50.390;30.778;2023-05-10T03:40:20;5.50;;;2.75;;
46447;SDS011;32145;50.390;30.778;2023-05-10T03:43:14;7.60;;;2.80;;
46447;SDS011;32145;50.390;30.778;2023-05-10T03:46:10;7.30;;;2.55;;
46447;SDS011;32145;50.390;30.778;2023-05-10T03:49:08;4.30;;;2.65;;
46447;SDS011;32145;50.390;30.778;2023-05-10T03:52:02;4.75;;;2.67;;
46447;SDS011;32145;50.390;30.778;2023-05-10T03:54:57;6.13;;;2.78;;
46447;SDS011;32145;50.390;30.778;2023-05-10T03:57:51;6.15;;;2.50;;
46447;SDS011;32145;50.390;30.778;2023-05-10T04:00:46;4.53;;;2.58;;
46447;SDS011;32145;50.390;30.778;2023-05-10T04:03:40;5.47;;;2.40;;
46447;SDS011;32145;50.390;30.778;2023-05-10T04:06:37;4.57;;;2.42;;
46447;SDS011;32145;50.390;30.778;2023-05-10T04:09:33;5.25;;;2.58;;
46447;SDS011;32145;50.390;30.778;2023-05-10T04:12:29;7.47;;;2.85;;
46447;SDS011;32145;50.390;30.778;2023-05-10T04:15:26;4.18;;;2.50;;
46447;SDS011;32145;50.390;30.778;2023-05-10T04:18:22;3.58;;;2.42;;
46447;SDS011;32145;50.390;30.778;2023-05-10T04:21:18;4.60;;;2.75;;
46447;SDS011;32145;50.390;30.778;2023-05-10T04:24:16;6.47;;;2.80;;
46447;SDS011;32145;50.390;30.778;2023-05-10T04:27:12;5.50;;;2.83;;
46447;SDS011;32145;50.390;30.778;2023-05-10T04:30:09;5.05;;;2.70;;
46447;SDS011;32145;50.390;30.778;2023-05-10T04:33:05;3.85;;;2.33;;
46447;SDS011;32145;50.390;30.778;2023-05-10T04:36:02;4.65;;;2.50;;
46447;SDS011;32145;50.390;30.778;2023-05-10T04:38:58;6.85;;;2.60;;
46447;SDS011;32145;50.390;30.778;2023-05-10T04:41:56;4.07;;;2.53;;
46447;SDS011;32145;50.390;30.778;2023-05-10T04:44:52;7.78;;;2.88;;
46447;SDS011;32145;50.390;30.778;2023-05-10T04:47:49;7.25;;;2.58;;
46447;SDS011;32145;50.390;30.778;2023-05-10T04:50:45;5.10;;;2.60;;
46447;SDS011;32145;50.390;30.778;2023-05-10T04:53:41;4.93;;;2.78;;
46447;SDS011;32145;50.390;30.778;2023-05-10T04:56:38;4.40;;;2.47;;
46447;SDS011;32145;50.390;30.778;2023-05-10T04:59:36;3.72;;;2.45;;
46447;SDS011;32145;50.390;30.778;2023-05-10T05:02:32;4.27;;;2.63;;
46447;SDS011;32145;50.390;30.778;2023-05-10T05:05:29;5.30;;;2.50;;
46447;SDS011;32145;50.390;30.778;2023-05-10T05:08:25;5.25;;;2.50;;
46447;SDS011;32145;50.390;30.778;2023-05-10T05:11:21;5.28;;;3.03;;
46447;SDS011;32145;50.390;30.778;2023-05-10T05:14:18;5.13;;;2.30;;
46447;SDS011;32145;50.390;30.778;2023-05-10T05:17:13;7.03;;;3.03;;
46447;SDS011;32145;50.390;30.778;2023-05-10T05:20:08;5.10;;;3.00;;
46447;SDS011;32145;50.390;30.778;2023-05-10T05:23:03;5.45;;;2.70;;
46447;SDS011;32145;50.390;30.778;2023-05-10T05:25:57;6.00;;;2.70;;
46447;SDS011;32145;50.390;30.778;2023-05-10T05:28:51;5.05;;;2.40;;
46447;SDS011;32145;50.390;30.778;2023-05-10T05:31:46;4.43;;;2.60;;
46447;SDS011;32145;50.390;30.778;2023-05-10T05:34:41;4.20;;;2.67;;
46447;SDS011;32145;50.390;30.778;2023-05-10T05:37:37;5.65;;;2.80;;
46447;SDS011;32145;50.390;30.778;2023-05-10T05:40:31;3.95;;;2.45;;
46447;SDS011;32145;50.390;30.778;2023-05-10T05:43:26;5.25;;;2.55;;
46447;SDS011;32145;50.390;30.778;2023-05-10T05:46:20;5.63;;;2.95;;
46447;SDS011;32145;50.390;30.778;2023-05-10T05:49:15;6.03;;;2.75;;
46447;SDS011;32145;50.390;30.778;2023-05-10T05:52:10;5.47;;;2.60;;
46447;SDS011;32145;50.390;30.778;2023-05-10T05:55:05;4.88;;;2.33;;
46447;SDS011;32145;50.390;30.778;2023-05-10T05:57:59;6.43;;;2.70;;
46447;SDS011;32145;50.390;30.778;2023-05-10T06:00:54;5.05;;;2.38;;
46447;SDS011;32145;50.390;30.778;2023-05-10T06:03:48;5.07;;;2.63;;
46447;SDS011;32145;50.390;30.778;2023-05-10T06:06:42;4.82;;;2.75;;
46447;SDS011;32145;50.390;30.778;2023-05-10T06:09:38;7.25;;;3.80;;
46447;SDS011;32145;50.390;30.778;2023-05-10T06:12:33;5.10;;;2.60;;
46447;SDS011;32145;50.390;30.778;2023-05-10T06:15:27;7.93;;;2.92;;
46447;SDS011;32145;50.390;30.778;2023-05-10T06:18:21;4.18;;;2.67;;
46447;SDS011;32145;50.390;30.778;2023-05-10T06:21:15;7.60;;;2.55;;
46447;SDS011;32145;50.390;30.778;2023-05-10T06:24:10;8.48;;;3.15;;
46447;SDS011;32145;50.390;30.778;2023-05-10T06:27:05;5.03;;;2.65;;
46447;SDS011;32145;50.390;30.778;2023-05-10T06:29:59;6.03;;;2.75;;
46447;SDS011;32145;50.390;30.778;2023-05-10T06:32:54;5.28;;;3.00;;
46447;SDS011;32145;50.390;30.778;2023-05-10T06:35:50;4.25;;;2.40;;
46447;SDS011;32145;50.390;30.778;2023-05-10T06:38:44;4.63;;;2.38;;
46447;SDS011;32145;50.390;30.778;2023-05-10T06:41:38;7.57;;;2.53;;
46447;SDS011;32145;50.390;30.778;2023-05-10T06:44:34;4.68;;;2.00;;
46447;SDS011;32145;50.390;30.778;2023-05-10T06:47:28;3.97;;;2.40;;
46447;SDS011;32145;50.390;30.778;2023-05-10T06:50:22;4.13;;;2.50;;
46447;SDS011;32145;50.390;30.778;2023-05-10T06:53:16;5.18;;;2.28;;
46447;SDS011;32145;50.390;30.778;2023-05-10T06:56:11;4.75;;;2.03;;
46447;SDS011;32145;50.390;30.778;2023-05-10T06:59:06;4.35;;;2.30;;
46447;SDS011;32145;50.390;30.778;2023-05-10T07:02:01;6.60;;;3.30;;
46447;SDS011;32145;50.390;30.778;2023-05-10T07:04:55;4.28;;;2.72;;
46447;SDS011;32145;50.390;30.778;2023-05-10T07:07:50;4.22;;;2.53;;
46447;SDS011;32145;50.390;30.778;2023-05-10T07:10:44;5.75;;;2.63;;
46447;SDS011;32145;50.390;30.778;2023-05-10T07:13:39;6.95;;;2.30;;
46447;SDS011;32145;50.390;30.778;2023-05-10T07:16:33;4.90;;;2.40;;
46447;SDS011;32145;50.390;30.778;2023-05-10T07:19:28;6.70;;;2.47;;
46447;SDS011;32145;50.390;30.778;2023-05-10T07:22:25;3.90;;;2.08;;
46447;SDS011;32145;50.390;30.778;2023-05-10T07:25:21;3.97;;;2.05;;
46447;SDS011;32145;50.390;30.778;2023-05-10T07:28:17;3.67;;;2.05;;
46447;SDS011;32145;50.390;30.778;2023-05-10T07:31:14;6.30;;;2.03;;
46447;SDS011;32145;50.390;30.778;2023-05-10T07:34:10;3.55;;;1.80;;
46447;SDS011;32145;50.390;30.778;2023-05-10T07:37:05;3.42;;;1.55;;
46447;SDS011;32145;50.390;30.778;2023-05-10T07:40:00;3.20;;;1.60;;
46447;SDS011;32145;50.390;30.778;2023-05-10T07:42:54;5.95;;;1.75;;
46447;SDS011;32145;50.390;30.778;2023-05-10T07:45:48;3.22;;;1.70;;
46447;SDS011;32145;50.390;30.778;2023-05-10T07:48:43;4.15;;;1.70;;
46447;SDS011;32145;50.390;30.778;2023-05-10T07:51:37;4.25;;;2.00;;
46447;SDS011;32145;50.390;30.778;2023-05-10T07:54:33;5.50;;;1.73;;
46447;SDS011;32145;50.390;30.778;2023-05-10T07:57:27;4.47;;;2.00;;
46447;SDS011;32145;50.390;30.778;2023-05-10T08:00:23;5.45;;;2.00;;
46447;SDS011;32145;50.390;30.778;2023-05-10T08:03:20;3.30;;;1.80;;
46447;SDS011;32145;50.390;30.778;2023-05-10T08:06:14;3.08;;;1.70;;
46447;SDS011;32145;50.390;30.778;2023-05-10T08:09:08;4.10;;;1.83;;
46447;SDS011;32145;50.390;30.778;2023-05-10T08:12:05;4.07;;;1.80;;
46447;SDS011;32145;50.390;30.778;2023-05-10T08:15:00;2.95;;;1.70;;
46447;SDS011;32145;50.390;30.778;2023-05-10T08:17:54;4.45;;;1.85;;
46447;SDS011;32145;50.390;30.778;2023-05-10T08:20:48;4.55;;;1.70;;
46447;SDS011;32145;50.390;30.778;2023-05-10T08:23:45;3.53;;;1.83;;
46447;SDS011;32145;50.390;30.778;2023-05-10T08:26:41;5.20;;;2.13;;
46447;SDS011;32145;50.390;30.778;2023-05-10T08:29:39;4.10;;;1.98;;
46447;SDS011;32145;50.390;30.778;2023-05-10T08:32:35;2.92;;;1.92;;
46447;SDS011;32145;50.390;30.778;2023-05-10T08:35:31;4.63;;;2.13;;
46447;SDS011;32145;50.390;30.778;2023-05-10T08:38:28;4.28;;;2.35;;
46447;SDS011;32145;50.390;30.778;2023-05-10T08:41:24;4.63;;;2.40;;
46447;SDS011;32145;50.390;30.778;2023-05-10T08:44:20;4.45;;;2.10;;
46447;SDS011;32145;50.390;30.778;2023-05-10T08:47:16;3.33;;;1.88;;
46447;SDS011;32145;50.390;30.778;2023-05-10T08:50:12;5.43;;;2.08;;
46447;SDS011;32145;50.390;30.778;2023-05-10T08:53:09;4.25;;;2.00;;
46447;SDS011;32145;50.390;30.778;2023-05-10T08:56:06;3.65;;;1.88;;
46447;SDS011;32145;50.390;30.778;2023-05-10T08:59:03;4.55;;;1.70;;
46447;SDS011;32145;50.390;30.778;2023-05-10T09:01:59;3.65;;;1.80;;
46447;SDS011;32145;50.390;30.778;2023-05-10T09:04:58;5.22;;;1.70;;
46447;SDS011;32145;50.390;30.778;2023-05-10T09:07:54;4.93;;;1.50;;
46447;SDS011;32145;50.390;30.778;2023-05-10T09:10:51;4.78;;;1.77;;
46447;SDS011;32145;50.390;30.778;2023-05-10T09:13:45;7.18;;;1.60;;
46447;SDS011;32145;50.390;30.778;2023-05-10T09:16:41;4.95;;;1.77;;
46447;SDS011;32145;50.390;30.778;2023-05-10T09:19:36;3.65;;;1.50;;
46447;SDS011;32145;50.390;30.778;2023-05-10T09:22:31;5.32;;;1.90;;
46447;SDS011;32145;50.390;30.778;2023-05-10T09:25:26;4.13;;;2.10;;
46447;SDS011;32145;50.390;30.778;2023-05-10T09:28:20;3.65;;;1.77;;
46447;SDS011;32145;50.390;30.778;2023-05-10T09:31:15;5.13;;;1.90;;
46447;SDS011;32145;50.390;30.778;2023-05-10T09:34:09;3.90;;;1.80;;
46447;SDS011;32145;50.390;30.778;2023-05-10T09:37:05;3.90;;;1.63;;
46447;SDS011;32145;50.390;30.778;2023-05-10T09:40:05;4.70;;;1.92;;
46447;SDS011;32145;50.390;30.778;2023-05-10T09:43:01;2.75;;;1.60;;
46447;SDS011;32145;50.390;30.778;2023-05-10T09:45:56;3.15;;;1.73;;
46447;SDS011;32145;50.390;30.778;2023-05-10T09:48:50;4.13;;;1.80;;
46447;SDS011;32145;50.390;30.778;2023-05-10T09:51:44;4.88;;;1.60;;
46447;SDS011;32145;50.390;30.778;2023-05-10T09:54:38;3.78;;;1.45;;
46447;SDS011;32145;50.390;30.778;2023-05-10T09:57:47;2.70;;;2.05;;
46447;SDS011;32145;50.390;30.778;2023-05-10T10:00:43;3.60;;;1.60;;
46447;SDS011;32145;50.390;30.778;2023-05-10T10:03:41;3.53;;;1.60;;
46447;SDS011;32145;50.390;30.778;2023-05-10T10:06:36;4.50;;;1.80;;
46447;SDS011;32145;50.390;30.778;2023-05-10T10:09:31;4.75;;;1.80;;
46447;SDS011;32145;50.390;30.778;2023-05-10T10:12:28;3.53;;;1.95;;
46447;SDS011;32145;50.390;30.778;2023-05-10T10:15:25;4.85;;;1.75;;
46447;SDS011;32145;50.390;30.778;2023-05-10T10:18:22;4.07;;;2.10;;
46447;SDS011;32145;50.390;30.778;2023-05-10T10:21:16;3.83;;;2.00;;
46447;SDS011;32145;50.390;30.778;2023-05-10T10:24:11;2.92;;;1.75;;
46447;SDS011;32145;50.390;30.778;2023-05-10T10:27:09;3.70;;;1.90;;
46447;SDS011;32145;50.390;30.778;2023-05-10T10:30:13;4.88;;;1.88;;
46447;SDS011;32145;50.390;30.778;2023-05-10T10:36:33;3.67;;;1.88;;
46447;SDS011;32145;50.390;30.778;2023-05-10T10:39:34;4.95;;;1.98;;
46447;SDS011;32145;50.390;30.778;2023-05-10T10:42:43;3.95;;;2.08;;
46447;SDS011;32145;50.390;30.778;2023-05-10T10:45:38;4.35;;;2.38;;
46447;SDS011;32145;50.390;30.778;2023-05-10T10:48:35;6.00;;;2.67;;
46447;SDS011;32145;50.390;30.778;2023-05-10T10:51:29;6.15;;;2.90;;
46447;SDS011;32145;50.390;30.778;2023-05-10T10:54:26;3.90;;;2.28;;
46447;SDS011;32145;50.390;30.778;2023-05-10T10:57:24;4.88;;;2.53;;
46447;SDS011;32145;50.390;30.778;2023-05-10T11:00:21;4.93;;;2.30;;
46447;SDS011;32145;50.390;30.778;2023-05-10T11:03:19;4.70;;;1.92;;
46447;SDS011;32145;50.390;30.778;2023-05-10T11:06:17;3.38;;;1.67;;
46447;SDS011;32145;50.390;30.778;2023-05-10T11:09:24;6.72;;;1.85;;
46447;SDS011;32145;50.390;30.778;2023-05-10T11:12:21;5.93;;;1.90;;
46447;SDS011;32145;50.390;30.778;2023-05-10T11:15:18;6.10;;;1.50;;
46447;SDS011;32145;50.390;30.778;2023-05-10T11:18:18;2.22;;;1.30;;
46447;SDS011;32145;50.390;30.778;2023-05-10T11:21:15;3.70;;;1.60;;
46447;SDS011;32145;50.390;30.778;2023-05-10T11:24:14;3.78;;;1.58;;
46447;SDS011;32145;50.390;30.778;2023-05-10T11:30:07;2.65;;;1.70;;
46447;SDS011;32145;50.390;30.778;2023-05-10T11:33:06;4.00;;;1.50;;
46447;SDS011;32145;50.390;30.778;2023-05-10T11:36:02;3.03;;;1.60;;
46447;SDS011;32145;50.390;30.778;2023-05-10T11:38:57;3.40;;;1.70;;
46447;SDS011;32145;50.390;30.778;2023-05-10T11:41:52;4.55;;;1.60;;
46447;SDS011;32145;50.390;30.778;2023-05-10T11:44:46;3.00;;;1.48;;
46447;SDS011;32145;50.390;30.778;2023-05-10T11:47:41;4.65;;;1.67;;
46447;SDS011;32145;50.390;30.778;2023-05-10T11:50:36;3.55;;;1.77;;
46447;SDS011;32145;50.390;30.778;2023-05-10T11:53:31;5.07;;;2.20;;
46447;SDS011;32145;50.390;30.778;2023-05-10T11:56:26;4.47;;;2.08;;
46447;SDS011;32145;50.390;30.778;2023-05-10T11:59:21;3.17;;;2.05;;
46447;SDS011;32145;50.390;30.778;2023-05-10T12:02:16;6.63;;;1.70;;
46447;SDS011;32145;50.390;30.778;2023-05-10T12:05:10;3.33;;;1.83;;
46447;SDS011;32145;50.390;30.778;2023-05-10T12:08:11;5.30;;;2.00;;
46447;SDS011;32145;50.390;30.778;2023-05-10T12:11:06;6.53;;;1.83;;
46447;SDS011;32145;50.390;30.778;2023-05-10T12:14:03;3.65;;;1.70;;
46447;SDS011;32145;50.390;30.778;2023-05-10T12:17:00;3.95;;;1.73;;
46447;SDS011;32145;50.390;30.778;2023-05-10T12:19:54;3.25;;;1.83;;
46447;SDS011;32145;50.390;30.778;2023-05-10T12:22:53;4.50;;;1.70;;
46447;SDS011;32145;50.390;30.778;2023-05-10T12:25:49;5.60;;;2.08;;
46447;SDS011;32145;50.390;30.778;2023-05-10T12:28:43;6.35;;;1.90;;
46447;SDS011;32145;50.390;30.778;2023-05-10T12:31:48;5.03;;;1.90;;
46447;SDS011;32145;50.390;30.778;2023-05-10T12:34:46;5.32;;;2.05;;
46447;SDS011;32145;50.390;30.778;2023-05-10T12:37:41;5.95;;;1.80;;
46447;SDS011;32145;50.390;30.778;2023-05-10T12:40:36;4.35;;;1.75;;
46447;SDS011;32145;50.390;30.778;2023-05-10T12:43:31;4.88;;;1.60;;
46447;SDS011;32145;50.390;30.778;2023-05-10T12:46:25;4.57;;;2.00;;
46447;SDS011;32145;50.390;30.778;2023-05-10T12:49:20;3.20;;;1.77;;
46447;SDS011;32145;50.390;30.778;2023-05-10T12:52:15;5.60;;;2.03;;
46447;SDS011;32145;50.390;30.778;2023-05-10T12:55:10;4.03;;;1.90;;
46447;SDS011;32145;50.390;30.778;2023-05-10T12:58:04;3.40;;;1.98;;
46447;SDS011;32145;50.390;30.778;2023-05-10T13:00:59;3.17;;;1.80;;
46447;SDS011;32145;50.390;30.778;2023-05-10T13:03:53;3.25;;;1.70;;
46447;SDS011;32145;50.390;30.778;2023-05-10T13:06:47;3.63;;;2.00;;
46447;SDS011;32145;50.390;30.778;2023-05-10T13:09:43;4.35;;;1.95;;
46447;SDS011;32145;50.390;30.778;2023-05-10T13:12:37;6.00;;;1.70;;
46447;SDS011;32145;50.390;30.778;2023-05-10T13:15:31;4.18;;;2.08;;
46447;SDS011;32145;50.390;30.778;2023-05-10T13:18:26;2.30;;;1.42;;
46447;SDS011;32145;50.390;30.778;2023-05-10T13:21:20;7.35;;;2.45;;
46447;SDS011;32145;50.390;30.778;2023-05-10T13:24:14;5.93;;;2.35;;
46447;SDS011;32145;50.390;30.778;2023-05-10T13:27:10;4.00;;;1.77;;
46447;SDS011;32145;50.390;30.778;2023-05-10T13:30:05;3.28;;;1.63;;
46447;SDS011;32145;50.390;30.778;2023-05-10T13:32:59;4.05;;;2.10;;
46447;SDS011;32145;50.390;30.778;2023-05-10T13:35:54;3.17;;;1.70;;
46447;SDS011;32145;50.390;30.778;2023-05-10T13:38:48;3.25;;;1.67;;
46447;SDS011;32145;50.390;30.778;2023-05-10T13:41:42;3.72;;;1.70;;
46447;SDS011;32145;50.390;30.778;2023-05-10T13:44:38;5.63;;;1.60;;
46447;SDS011;32145;50.390;30.778;2023-05-10T13:47:32;3.63;;;1.58;;
46447;SDS011;32145;50.390;30.778;2023-05-10T13:50:27;3.47;;;1.77;;
46447;SDS011;32145;50.390;30.778;2023-05-10T13:53:21;10.95;;;2.00;;
46447;SDS011;32145;50.390;30.778;2023-05-10T13:56:15;4.68;;;1.60;;
46447;SDS011;32145;50.390;30.778;2023-05-10T13:59:10;3.33;;;1.60;;
46447;SDS011;32145;50.390;30.778;2023-05-10T14:02:05;5.35;;;1.60;;
46447;SDS011;32145;50.390;30.778;2023-05-10T14:04:59;3.53;;;1.40;;
46447;SDS011;32145;50.390;30.778;2023-05-10T14:07:54;3.75;;;1.77;;
46447;SDS011;32145;50.390;30.778;2023-05-10T14:10:48;3.22;;;1.50;;
46447;SDS011;32145;50.390;30.778;2023-05-10T14:13:42;3.15;;;1.60;;
46447;SDS011;32145;50.390;30.778;2023-05-10T14:16:40;3.15;;;1.42;;
46447;SDS011;32145;50.390;30.778;2023-05-10T14:19:38;5.60;;;1.50;;
46447;SDS011;32145;50.390;30.778;2023-05-10T14:22:35;4.65;;;1.70;;
46447;SDS011;32145;50.390;30.778;2023-05-10T14:25:29;3.22;;;1.80;;
46447;SDS011;32145;50.390;30.778;2023-05-10T14:28:24;5.78;;;2.10;;
46447;SDS011;32145;50.390;30.778;2023-05-10T14:31:20;4.20;;;1.70;;
46447;SDS011;32145;50.390;30.778;2023-05-10T14:34:16;4.05;;;1.65;;
46447;SDS011;32145;50.390;30.778;2023-05-10T14:37:14;6.53;;;1.60;;
46447;SDS011;32145;50.390;30.778;2023-05-10T14:40:10;4.35;;;1.58;;
46447;SDS011;32145;50.390;30.778;2023-05-10T14:43:07;4.10;;;1.88;;
46447;SDS011;32145;50.390;30.778;2023-05-10T14:46:03;2.35;;;1.50;;
46447;SDS011;32145;50.390;30.778;2023-05-10T14:49:00;3.97;;;1.90;;
46447;SDS011;32145;50.390;30.778;2023-05-10T14:51:56;3.67;;;1.77;;
46447;SDS011;32145;50.390;30.778;2023-05-10T14:54:54;4.22;;;1.88;;
46447;SDS011;32145;50.390;30.778;2023-05-10T14:57:50;6.35;;;2.40;;
46447;SDS011;32145;50.390;30.778;2023-05-10T15:00:47;4.85;;;2.30;;
46447;SDS011;32145;50.390;30.778;2023-05-10T15:03:43;6.25;;;3.03;;
46447;SDS011;32145;50.390;30.778;2023-05-10T15:06:39;5.22;;;2.28;;
46447;SDS011;32145;50.390;30.778;2023-05-10T15:09:35;3.10;;;1.77;;
46447;SDS011;32145;50.390;30.778;2023-05-10T15:12:31;5.90;;;2.55;;
46447;SDS011;32145;50.390;30.778;2023-05-10T15:15:25;3.35;;;1.80;;
46447;SDS011;32145;50.390;30.778;2023-05-10T15:18:20;3.50;;;1.55;;
46447;SDS011;32145;50.390;30.778;2023-05-10T15:21:14;2.80;;;1.70;;
46447;SDS011;32145;50.390;30.778;2023-05-10T15:24:11;5.45;;;2.20;;
46447;SDS011;32145;50.390;30.778;2023-05-10T15:27:07;2.75;;;1.63;;
46447;SDS011;32145;50.390;30.778;2023-05-10T15:30:03;2.95;;;1.40;;
46447;SDS011;32145;50.390;30.778;2023-05-10T15:32:58;7.10;;;1.70;;
46447;SDS011;32145;50.390;30.778;2023-05-10T15:35:53;3.15;;;1.70;;
46447;SDS011;32145;50.390;30.778;2023-05-10T15:38:47;4.53;;;1.75;;
46447;SDS011;32145;50.390;30.778;2023-05-10T15:41:41;3.47;;;1.92;;
46447;SDS011;32145;50.390;30.778;2023-05-10T15:44:35;3.42;;;1.73;;
46447;SDS011;32145;50.390;30.778;2023-05-10T15:47:31;7.30;;;3.10;;
46447;SDS011;32145;50.390;30.778;2023-05-10T15:50:27;4.95;;;2.20;;
46447;SDS011;32145;50.390;30.778;2023-05-10T15:53:24;5.97;;;2.83;;
46447;SDS011;32145;50.390;30.778;2023-05-10T15:56:20;4.57;;;2.30;;
46447;SDS011;32145;50.390;30.778;2023-05-10T15:59:17;4.35;;;1.70;;
46447;SDS011;32145;50.390;30.778;2023-05-10T16:02:11;3.88;;;2.00;;
46447;SDS011;32145;50.390;30.778;2023-05-10T16:05:07;3.65;;;2.13;;
46447;SDS011;32145;50.390;30.778;2023-05-10T16:08:04;6.03;;;2.15;;
46447;SDS011;32145;50.390;30.778;2023-05-10T16:11:00;5.47;;;1.73;;
46447;SDS011;32145;50.390;30.778;2023-05-10T16:13:57;3.72;;;1.73;;
46447;SDS011;32145;50.390;30.778;2023-05-10T16:16:54;5.53;;;2.00;;
46447;SDS011;32145;50.390;30.778;2023-05-10T16:19:50;2.78;;;1.40;;
46447;SDS011;32145;50.390;30.778;2023-05-10T16:22:48;5.90;;;1.80;;
46447;SDS011;32145;50.390;30.778;2023-05-10T16:25:45;3.75;;;1.80;;
46447;SDS011;32145;50.390;30.778;2023-05-10T16:28:42;3.75;;;2.15;;
46447;SDS011;32145;50.390;30.778;2023-05-10T16:31:38;3.78;;;1.88;;
46447;SDS011;32145;50.390;30.778;2023-05-10T16:34:32;5.00;;;1.83;;
46447;SDS011;32145;50.390;30.778;2023-05-10T16:37:27;3.00;;;1.80;;
46447;SDS011;32145;50.390;30.778;2023-05-10T16:40:22;3.70;;;2.30;;
46447;SDS011;32145;50.390;30.778;2023-05-10T16:43:17;5.15;;;2.20;;
46447;SDS011;32145;50.390;30.778;2023-05-10T16:46:11;3.20;;;1.55;;
46447;SDS011;32145;50.390;30.778;2023-05-10T16:49:05;6.80;;;1.95;;
46447;SDS011;32145;50.390;30.778;2023-05-10T16:52:02;3.72;;;1.85;;
46447;SDS011;32145;50.390;30.778;2023-05-10T16:54:58;6.10;;;2.08;;
46447;SDS011;32145;50.390;30.778;2023-05-10T16:57:56;10.82;;;6.82;;
46447;SDS011;32145;50.390;30.778;2023-05-10T17:00:52;7.90;;;4.20;;
46447;SDS011;32145;50.390;30.778;2023-05-10T17:03:49;6.97;;;3.83;;
46447;SDS011;32145;50.390;30.778;2023-05-10T17:06:45;5.90;;;3.55;;
46447;SDS011;32145;50.390;30.778;2023-05-10T17:09:41;6.40;;;2.95;;
46447;SDS011;32145;50.390;30.778;2023-05-10T17:12:38;6.55;;;4.00;;
46447;SDS011;32145;50.390;30.778;2023-05-10T17:15:35;11.15;;;4.43;;
46447;SDS011;32145;50.390;30.778;2023-05-10T17:18:30;5.47;;;3.38;;
46447;SDS011;32145;50.390;30.778;2023-05-10T17:21:24;8.55;;;3.28;;
46447;SDS011;32145;50.390;30.778;2023-05-10T17:24:18;7.40;;;4.53;;
46447;SDS011;32145;50.390;30.778;2023-05-10T17:27:13;13.27;;;5.43;;
46447;SDS011;32145;50.390;30.778;2023-05-10T17:30:08;16.05;;;6.50;;